createdAt,value
2023-01-03T00:01:49.293Z,41.30
2023-01-03T00:03:53.263Z,39.95
2023-01-03T00:05:54.986Z,39.90
2023-01-03T00:07:56.688Z,39.92
2023-01-03T00:09:58.465Z,39.97
2023-01-03T00:12:18.732Z,41.47
2023-01-03T00:14:26.073Z,39.78
2023-01-03T00:16:27.914Z,40.35
2023-01-03T00:18:29.595Z,38.88
2023-01-03T00:20:31.277Z,40.08
2023-01-03T00:22:33.062Z,41.92
2023-01-03T00:24:35.098Z,41.80
2023-01-03T00:26:37.367Z,44.72
2023-01-03T00:28:39.116Z,42.25
2023-01-03T00:30:40.889Z,44.38
2023-01-03T00:32:42.797Z,44.67
2023-01-03T00:34:45.978Z,45.00
2023-01-03T00:36:47.750Z,42.90
2023-01-03T00:38:49.475Z,42.47
2023-01-03T00:40:51.126Z,41.63
2023-01-03T00:43:11.655Z,43.25
2023-01-03T00:45:17.514Z,40.05
2023-01-03T00:47:21.397Z,36.35
2023-01-03T00:49:23.138Z,35.88
2023-01-03T00:51:26.898Z,38.45
2023-01-03T00:53:28.585Z,39.80
2023-01-03T00:55:30.356Z,39.33
2023-01-03T00:57:32.001Z,36.53
2023-01-03T00:59:33.687Z,35.22
2023-01-03T01:01:47.089Z,33.97
2023-01-03T01:03:52.721Z,35.03
2023-01-03T01:05:54.590Z,34.40
2023-01-03T01:07:56.602Z,35.22
2023-01-03T01:09:58.312Z,37.15
2023-01-03T01:12:00.158Z,37.92
2023-01-03T01:14:01.925Z,39.28
2023-01-03T01:16:06.896Z,36.03
2023-01-03T01:18:08.599Z,33.97
2023-01-03T01:20:10.319Z,34.72
2023-01-03T01:22:12.871Z,34.47
2023-01-03T01:24:18.050Z,34.53
2023-01-03T01:26:22.174Z,37.75
2023-01-03T01:30:25.389Z,42.58
2023-01-03T01:32:27.220Z,42.72
2023-01-03T01:34:29.954Z,41.72
2023-01-03T01:36:33.620Z,39.72
2023-01-03T01:38:35.400Z,39.28
2023-01-03T01:40:37.113Z,41.97
2023-01-03T01:42:57.293Z,41.78
2023-01-03T01:45:03.604Z,41.15
2023-01-03T01:47:07.415Z,40.95
2023-01-03T01:49:13.404Z,42.15
2023-01-03T01:51:15.638Z,40.63
2023-01-03T01:53:34.020Z,39.75
2023-01-03T01:56:03.164Z,39.78
2023-01-03T01:58:07.370Z,41.28
2023-01-03T02:00:10.535Z,39.50
2023-01-03T02:02:14.957Z,38.70
2023-01-03T02:04:22.124Z,38.45
2023-01-03T02:06:24.628Z,38.17
2023-01-03T02:08:26.504Z,39.35
2023-01-03T02:10:54.449Z,37.63
2023-01-03T02:13:48.285Z,39.65
2023-01-03T02:15:56.521Z,37.33
2023-01-03T02:18:19.569Z,34.80
2023-01-03T02:20:32.704Z,28.85
2023-01-03T02:23:02.479Z,26.90
2023-01-03T02:25:34.703Z,27.10
2023-01-03T02:27:45.264Z,26.10
2023-01-03T02:30:09.577Z,26.65
2023-01-03T02:32:26.280Z,28.60
2023-01-03T02:34:39.234Z,29.00
2023-01-03T02:36:58.824Z,31.17
2023-01-03T02:39:06.646Z,29.50
2023-01-03T02:41:24.537Z,29.35
2023-01-03T02:43:52.963Z,30.27
2023-01-03T02:46:05.103Z,28.75
2023-01-03T02:48:19.406Z,31.50
2023-01-03T02:52:26.780Z,32.67
2023-01-03T02:54:37.337Z,30.83
2023-01-03T02:57:00.458Z,29.45
2023-01-03T02:59:07.136Z,31.45
2023-01-03T03:01:10.493Z,30.13
2023-01-03T03:03:15.786Z,29.67
2023-01-03T03:05:24.989Z,28.38
2023-01-03T03:07:28.726Z,28.50
2023-01-03T03:09:30.846Z,29.67
2023-01-03T03:11:54.500Z,28.38
2023-01-03T03:14:01.750Z,28.90
2023-01-03T03:16:07.046Z,29.85
2023-01-03T03:18:13.023Z,31.38
2023-01-03T03:20:35.594Z,32.35
2023-01-03T03:23:15.583Z,30.55
2023-01-03T03:25:27.355Z,29.38
2023-01-03T03:27:48.695Z,28.77
2023-01-03T03:29:52.852Z,31.35
2023-01-03T03:31:55.506Z,28.85
2023-01-03T03:34:30.068Z,29.05
2023-01-03T03:36:44.027Z,29.38
2023-01-03T03:38:46.451Z,29.20
2023-01-03T03:41:23.613Z,62.08
2023-01-03T03:43:51.108Z,72.65
2023-01-03T03:46:05.856Z,68.40
2023-01-03T03:48:13.224Z,79.35
2023-01-03T03:50:20.740Z,75.80
2023-01-03T03:52:26.492Z,78.57
2023-01-03T03:54:29.347Z,81.50
2023-01-03T03:56:34.914Z,86.85
2023-01-03T03:58:41.500Z,83.00
2023-01-03T04:00:44.390Z,72.40
2023-01-03T04:02:49.917Z,91.82
2023-01-03T04:04:55.666Z,90.97
2023-01-03T04:06:57.357Z,77.85
2023-01-03T04:08:59.349Z,67.03
2023-01-03T04:11:07.348Z,47.42
2023-01-03T04:13:09.131Z,61.85
2023-01-03T04:15:11.053Z,66.28
2023-01-03T04:17:13.027Z,72.65
2023-01-03T04:19:14.783Z,75.03
2023-01-03T04:21:20.749Z,74.80
2023-01-03T04:23:23.030Z,77.70
2023-01-03T04:25:25.159Z,72.32
2023-01-03T04:27:26.932Z,70.53
2023-01-03T04:29:28.522Z,66.43
2023-01-03T04:31:30.219Z,71.65
2023-01-03T04:33:31.966Z,71.32
2023-01-03T04:35:34.375Z,68.53
2023-01-03T04:37:36.134Z,65.60
2023-01-03T04:39:37.972Z,72.97
2023-01-03T04:41:39.676Z,74.88
2023-01-03T04:43:59.882Z,80.72
2023-01-03T04:46:01.633Z,76.97
2023-01-03T04:48:03.763Z,72.00
2023-01-03T04:50:05.944Z,67.72
2023-01-03T04:52:08.061Z,69.28
2023-01-03T04:54:09.784Z,70.32
2023-01-03T04:56:11.546Z,72.50
2023-01-03T04:58:13.410Z,73.72
2023-01-03T05:00:15.658Z,82.65
2023-01-03T05:02:17.550Z,78.43
2023-01-03T05:04:19.511Z,79.22
2023-01-03T05:06:21.247Z,73.85
2023-01-03T05:08:23.027Z,77.07
2023-01-03T05:10:26.165Z,66.10
2023-01-03T05:12:27.861Z,68.35
2023-01-03T05:14:29.738Z,65.28
2023-01-03T05:16:31.595Z,69.60
2023-01-03T05:18:33.562Z,73.63
2023-01-03T05:20:57.195Z,80.25
2023-01-03T05:23:17.612Z,74.22
2023-01-03T05:25:37.740Z,68.00
2023-01-03T05:27:39.795Z,58.28
2023-01-03T05:29:41.526Z,57.30
2023-01-03T05:31:43.309Z,60.42
2023-01-03T05:33:45.082Z,58.53
2023-01-03T05:35:47.704Z,61.10
2023-01-03T05:37:53.146Z,62.53
2023-01-03T05:39:54.805Z,65.13
2023-01-03T05:42:02.518Z,61.08
2023-01-03T05:44:04.352Z,63.45
2023-01-03T05:46:06.023Z,64.00
2023-01-03T05:48:08.750Z,63.63
2023-01-03T05:50:10.741Z,68.10
2023-01-03T05:52:12.658Z,66.00
2023-01-03T05:54:15.744Z,65.90
2023-01-03T05:56:17.402Z,64.70
2023-01-03T05:58:19.370Z,64.45
2023-01-03T06:00:21.084Z,66.25
2023-01-03T06:02:22.858Z,66.55
2023-01-03T06:04:24.791Z,68.50
2023-01-03T06:06:26.585Z,74.80
2023-01-03T06:08:28.265Z,70.13
2023-01-03T06:10:29.988Z,71.22
2023-01-03T06:12:32.144Z,70.13
2023-01-03T06:14:33.853Z,71.55
2023-01-03T06:16:54.292Z,70.25
2023-01-03T06:18:56.056Z,71.80
2023-01-03T06:20:57.691Z,76.30
2023-01-03T06:22:59.441Z,83.75
2023-01-03T06:25:01.191Z,86.35
2023-01-03T06:27:03.038Z,85.03
2023-01-03T06:29:05.581Z,86.07
2023-01-03T06:31:07.353Z,84.70
2023-01-03T06:33:09.073Z,76.55
2023-01-03T06:35:11.127Z,76.93
2023-01-03T06:37:12.780Z,78.95
2023-01-03T06:39:14.514Z,80.47
2023-01-03T06:41:16.581Z,84.07
2023-01-03T06:43:18.201Z,84.85
2023-01-03T06:45:38.492Z,84.72
2023-01-03T06:47:58.568Z,81.75
2023-01-03T06:50:18.708Z,80.60
2023-01-03T06:52:39.048Z,72.88
2023-01-03T06:54:40.960Z,75.45
2023-01-03T06:56:42.702Z,81.13
2023-01-03T06:58:44.453Z,83.22
2023-01-03T07:00:46.549Z,83.93
2023-01-03T07:02:48.290Z,85.80
2023-01-03T07:04:50.184Z,87.18
2023-01-03T07:06:52.174Z,85.60
2023-01-03T07:08:54.026Z,88.93
2023-01-03T07:10:56.055Z,85.82
2023-01-03T07:13:18.965Z,84.28
2023-01-03T07:15:20.647Z,81.25
2023-01-03T07:17:22.393Z,80.60
2023-01-03T07:19:24.058Z,84.03
2023-01-03T07:21:27.809Z,84.10
2023-01-03T07:23:29.503Z,83.63
2023-01-03T07:25:31.242Z,84.32
2023-01-03T07:27:33.019Z,82.57
2023-01-03T07:29:34.663Z,81.97
2023-01-03T07:31:39.934Z,79.03
2023-01-03T07:33:41.792Z,79.38
2023-01-03T07:35:43.632Z,79.32
2023-01-03T07:37:45.346Z,81.22
2023-01-03T07:39:47.082Z,77.30
2023-01-03T07:42:07.352Z,78.53
2023-01-03T07:44:09.103Z,77.93
2023-01-03T07:46:18.449Z,76.05
2023-01-03T07:48:20.218Z,72.68
2023-01-03T07:50:21.890Z,76.65
2023-01-03T07:52:23.552Z,73.03
2023-01-03T07:54:25.293Z,75.03
2023-01-03T07:56:26.940Z,74.95
2023-01-03T07:58:28.506Z,77.50
2023-01-03T08:00:30.461Z,74.30
2023-01-03T08:02:32.186Z,77.57
2023-01-03T08:04:33.989Z,74.45
2023-01-03T08:06:35.764Z,73.88
2023-01-03T08:08:37.837Z,73.72
2023-01-03T08:10:58.006Z,73.72
2023-01-03T08:13:17.809Z,71.97
2023-01-03T08:15:19.532Z,69.20
2023-01-03T08:17:21.258Z,71.75
2023-01-03T08:19:23.990Z,70.93
2023-01-03T08:21:25.618Z,73.50
2023-01-03T08:23:27.442Z,75.05
2023-01-03T08:25:29.172Z,73.40
2023-01-03T08:27:30.888Z,73.45
2023-01-03T08:29:32.626Z,76.05
2023-01-03T08:31:37.105Z,72.22
2023-01-03T08:33:42.704Z,74.43
2023-01-03T08:35:48.714Z,73.40
2023-01-03T08:37:50.839Z,73.50
2023-01-03T08:39:57.041Z,71.30
2023-01-03T08:42:01.540Z,70.25
2023-01-03T08:44:05.133Z,70.47
2023-01-03T08:46:08.047Z,66.13
2023-01-03T08:48:10.833Z,70.95
2023-01-03T08:50:13.328Z,67.32
2023-01-03T08:52:15.014Z,69.68
2023-01-03T08:54:16.742Z,67.55
2023-01-03T08:56:21.833Z,67.10
2023-01-03T08:58:23.735Z,67.50
2023-01-03T09:00:26.125Z,66.80
2023-01-03T09:02:28.097Z,66.25
2023-01-03T09:04:29.973Z,66.43
2023-01-03T09:06:31.960Z,64.38
2023-01-03T09:08:34.417Z,65.80
2023-01-03T09:10:39.669Z,65.30
2023-01-03T09:12:43.857Z,64.47
2023-01-03T09:14:45.502Z,62.45
2023-01-03T09:16:49.307Z,65.93
2023-01-03T09:18:51.351Z,61.22
2023-01-03T09:20:53.229Z,65.90
2023-01-03T09:22:54.992Z,66.13
2023-01-03T09:24:56.697Z,64.15
2023-01-03T09:26:58.417Z,64.03
2023-01-03T09:29:00.103Z,62.97
2023-01-03T09:31:02.018Z,64.85
2023-01-03T09:33:04.982Z,61.67
2023-01-03T09:35:07.306Z,63.03
2023-01-03T09:37:08.986Z,63.53
2023-01-03T09:39:10.754Z,60.30
2023-01-03T09:41:17.888Z,61.03
2023-01-03T09:43:25.428Z,63.20
2023-01-03T09:45:32.714Z,64.10
2023-01-03T09:47:38.290Z,63.67
2023-01-03T09:49:52.090Z,71.00
2023-01-03T09:52:20.409Z,75.82
2023-01-03T09:54:46.618Z,73.43
2023-01-03T09:57:07.000Z,76.85
2023-01-03T09:59:35.582Z,78.35
2023-01-03T10:02:05.130Z,81.13
2023-01-03T10:04:36.230Z,76.40
2023-01-03T10:06:44.075Z,78.68
2023-01-03T10:08:55.428Z,79.18
2023-01-03T10:11:26.154Z,75.70
2023-01-03T10:13:36.972Z,76.75
2023-01-03T10:15:51.633Z,77.85
2023-01-03T10:18:10.258Z,81.18
2023-01-03T10:20:33.872Z,75.75
2023-01-03T10:22:36.357Z,75.10
2023-01-03T10:24:53.528Z,76.15
2023-01-03T10:27:12.048Z,83.82
2023-01-03T10:29:16.771Z,81.15
2023-01-03T10:31:50.665Z,85.15
2023-01-03T10:33:52.633Z,85.88
2023-01-03T10:35:54.604Z,86.93
2023-01-03T10:37:57.201Z,84.85
2023-01-03T10:40:03.899Z,89.22
2023-01-03T10:42:05.637Z,89.50
2023-01-03T10:44:07.268Z,91.43
2023-01-03T10:46:15.897Z,91.30
2023-01-03T10:48:17.642Z,91.22
2023-01-03T10:50:21.719Z,92.82
2023-01-03T10:52:24.013Z,93.22
2023-01-03T10:54:31.451Z,93.90
2023-01-03T10:56:35.369Z,94.47
2023-01-03T11:00:39.930Z,94.63
2023-01-03T11:02:45.035Z,98.13
2023-01-03T11:04:46.753Z,93.45
2023-01-03T11:07:12.276Z,99.95
2023-01-03T11:09:15.217Z,98.50
2023-01-03T11:11:31.816Z,96.10
2023-01-03T11:13:40.905Z,94.93
2023-01-03T11:15:42.918Z,93.13
2023-01-03T11:18:05.222Z,93.88
2023-01-03T11:20:18.536Z,92.25
2023-01-03T11:22:41.600Z,93.90
2023-01-03T11:24:43.186Z,91.95
2023-01-03T11:26:51.623Z,88.75
2023-01-03T11:29:13.609Z,88.40
2023-01-03T11:31:21.082Z,88.65
2023-01-03T11:33:29.950Z,89.35
2023-01-03T11:35:50.171Z,87.93
2023-01-03T11:38:10.628Z,86.72
2023-01-03T11:40:41.528Z,86.70
2023-01-03T11:43:00.500Z,86.57
2023-01-03T11:45:48.097Z,85.88
2023-01-03T11:48:12.341Z,83.85
2023-01-03T11:50:46.560Z,82.35
2023-01-03T11:52:55.220Z,84.13
2023-01-03T11:55:09.341Z,84.07
2023-01-03T11:57:56.117Z,81.30
2023-01-03T12:00:03.862Z,83.65
2023-01-03T12:02:27.587Z,88.13
2023-01-03T12:04:30.761Z,84.30
2023-01-03T12:07:21.885Z,85.85
2023-01-03T12:09:22.486Z,88.75
2023-01-03T12:11:36.346Z,88.93
2023-01-03T12:14:06.409Z,89.90
2023-01-03T12:16:10.627Z,83.90
2023-01-03T12:18:41.421Z,84.65
2023-01-03T12:20:47.743Z,86.72
2023-01-03T12:22:56.948Z,82.07
2023-01-03T12:25:20.829Z,86.03
2023-01-03T12:27:29.242Z,88.47
2023-01-03T12:29:39.095Z,84.05
2023-01-03T12:31:45.563Z,84.82
2023-01-03T12:34:03.944Z,81.95
2023-01-03T12:36:23.721Z,85.35
2023-01-03T12:38:40.471Z,87.10
2023-01-03T12:40:55.943Z,83.75
2023-01-03T12:43:04.925Z,82.93
2023-01-03T12:45:12.456Z,82.18
2023-01-03T12:47:33.178Z,85.75
2023-01-03T12:50:01.195Z,90.15
2023-01-03T12:52:02.842Z,83.78
2023-01-03T12:54:23.472Z,83.85
2023-01-03T12:56:45.321Z,76.25
2023-01-03T12:59:15.480Z,74.97
2023-01-03T13:01:27.634Z,72.50
2023-01-03T13:03:50.590Z,67.10
2023-01-03T13:05:57.113Z,64.28
2023-01-03T13:08:10.080Z,65.45
2023-01-03T13:10:16.772Z,61.65
2023-01-03T13:12:25.979Z,57.78
2023-01-03T13:14:28.901Z,47.50
2023-01-03T13:16:36.650Z,53.35
2023-01-03T13:18:38.373Z,52.58
2023-01-03T13:20:43.627Z,54.22
2023-01-03T13:22:56.215Z,52.33
2023-01-03T13:25:26.850Z,51.63
2023-01-03T13:27:37.195Z,45.33
2023-01-03T13:30:02.933Z,47.67
2023-01-03T13:32:26.170Z,45.10
2023-01-03T13:34:33.270Z,46.05
2023-01-03T13:37:03.989Z,37.58
2023-01-03T13:39:36.978Z,32.38
2023-01-03T13:41:39.225Z,28.45
2023-01-03T13:43:40.927Z,26.15
2023-01-03T13:45:42.556Z,18.70
2023-01-03T13:47:49.452Z,13.95
2023-01-03T13:49:53.954Z,11.88
2023-01-03T13:51:57.593Z,8.32
2023-01-03T13:54:02.616Z,7.47
2023-01-03T13:56:16.260Z,6.28
2023-01-03T13:58:54.711Z,5.82
2023-01-03T14:01:05.215Z,5.70
2023-01-03T14:03:28.112Z,6.82
2023-01-03T14:06:02.947Z,5.97
2023-01-03T14:08:23.448Z,7.45
2023-01-03T14:10:55.920Z,6.13
2023-01-03T14:13:06.507Z,5.75
2023-01-03T14:15:30.076Z,5.07
2023-01-03T14:17:33.445Z,7.10
2023-01-03T14:19:36.816Z,6.40
2023-01-03T14:22:20.962Z,5.93
2023-01-03T14:24:25.708Z,4.78
2023-01-03T14:26:27.709Z,5.10
2023-01-03T14:28:32.618Z,5.78
2023-01-03T14:30:37.596Z,5.05
2023-01-03T14:32:40.142Z,6.15
2023-01-03T14:34:42.172Z,5.93
2023-01-03T14:36:48.227Z,6.22
2023-01-03T14:38:55.606Z,6.30
2023-01-03T14:40:57.978Z,6.72
2023-01-03T14:43:03.904Z,5.50
2023-01-03T14:45:07.245Z,6.72
2023-01-03T14:47:17.839Z,5.85
2023-01-03T14:49:25.647Z,6.22
2023-01-03T14:51:30.161Z,5.70
2023-01-03T14:53:33.561Z,6.35
2023-01-03T14:55:35.449Z,6.45
2023-01-03T14:57:39.009Z,6.43
2023-01-03T14:59:40.843Z,6.47
2023-01-03T15:01:44.396Z,7.10
2023-01-03T15:03:47.754Z,8.57
2023-01-03T15:05:57.176Z,10.30
2023-01-03T15:08:22.523Z,13.68
2023-01-03T15:10:37.526Z,15.05
2023-01-03T15:12:40.794Z,10.90
2023-01-03T15:14:42.421Z,8.70
2023-01-03T15:16:44.205Z,7.15
2023-01-03T15:18:47.101Z,8.02
2023-01-03T15:20:51.427Z,7.13
2023-01-03T15:22:53.323Z,7.57
2023-01-03T15:25:03.972Z,8.23
2023-01-03T15:27:51.510Z,8.25
2023-01-03T15:29:53.196Z,7.47
2023-01-03T15:31:54.957Z,7.25
2023-01-03T15:34:20.974Z,7.43
2023-01-03T15:36:25.422Z,8.02
2023-01-03T15:38:38.130Z,7.47
2023-01-03T15:40:40.373Z,7.70
2023-01-03T15:43:02.066Z,8.25
2023-01-03T15:45:20.123Z,8.95
2023-01-03T15:47:22.794Z,9.13
2023-01-03T15:49:25.482Z,11.60
2023-01-03T15:51:27.377Z,9.38
2023-01-03T15:53:43.825Z,9.65
2023-01-03T15:55:47.936Z,8.82
2023-01-03T15:57:54.068Z,10.10
2023-01-03T16:00:01.368Z,9.38
2023-01-03T16:02:03.509Z,9.05
2023-01-03T16:04:05.465Z,10.63
2023-01-03T16:06:07.176Z,10.00
2023-01-03T16:08:24.108Z,10.55
2023-01-03T16:10:25.786Z,11.10
2023-01-03T16:12:35.907Z,10.93
2023-01-03T16:14:40.124Z,10.57
2023-01-03T16:16:44.294Z,10.52
2023-01-03T16:18:46.339Z,10.90
2023-01-03T16:20:47.979Z,9.15
2023-01-03T16:23:00.616Z,10.18
2023-01-03T16:25:05.040Z,10.23
2023-01-03T16:27:14.897Z,11.95
2023-01-03T16:29:16.728Z,9.88
2023-01-03T16:31:28.722Z,10.30
2023-01-03T16:33:33.816Z,8.75
2023-01-03T16:35:36.011Z,10.43
2023-01-03T16:37:37.857Z,8.98
2023-01-03T16:39:45.743Z,8.38
2023-01-03T16:42:09.668Z,8.90
2023-01-03T16:44:11.381Z,8.27
2023-01-03T16:46:15.256Z,7.40
2023-01-03T16:48:19.109Z,9.68
2023-01-03T16:52:25.865Z,8.20
2023-01-03T16:54:27.568Z,9.38
2023-01-03T16:56:29.339Z,8.48
2023-01-03T16:58:31.062Z,7.65
2023-01-03T17:00:34.602Z,7.50
2023-01-03T17:02:36.315Z,8.40
2023-01-03T17:04:38.035Z,7.35
2023-01-03T17:06:41.032Z,8.23
2023-01-03T17:08:42.957Z,7.95
2023-01-03T17:10:47.007Z,6.85
2023-01-03T17:12:48.814Z,6.60
2023-01-03T17:14:50.693Z,7.38
2023-01-03T17:16:52.453Z,7.57
2023-01-03T17:18:54.371Z,7.35
2023-01-03T17:21:02.019Z,6.97
2023-01-03T17:23:04.517Z,7.47
2023-01-03T17:25:06.650Z,8.65
2023-01-03T17:27:19.880Z,8.68
2023-01-03T17:29:24.455Z,8.85
2023-01-03T17:31:26.646Z,7.10
2023-01-03T17:33:33.808Z,7.72
2023-01-03T17:35:37.638Z,7.65
2023-01-03T17:38:05.743Z,8.38
2023-01-03T17:40:01.183Z,8.05
2023-01-03T17:42:16.337Z,8.25
2023-01-03T17:44:18.242Z,9.10
2023-01-03T17:46:40.785Z,8.90
2023-01-03T17:49:01.375Z,9.60
2023-01-03T17:51:03.208Z,9.95
2023-01-03T17:53:04.939Z,12.52
2023-01-03T17:55:19.722Z,12.52
2023-01-03T17:57:21.459Z,14.55
2023-01-03T17:59:23.124Z,13.75
2023-01-03T18:01:24.980Z,11.20
2023-01-03T18:03:26.816Z,11.95
2023-01-03T18:05:29.879Z,11.57
2023-01-03T18:07:33.194Z,10.88
2023-01-03T18:09:34.988Z,9.77
2023-01-03T18:11:36.910Z,9.13
2023-01-03T18:13:39.088Z,9.32
2023-01-03T18:15:40.807Z,8.13
2023-01-03T18:17:42.538Z,7.72
2023-01-03T18:19:44.323Z,8.20
2023-01-03T18:21:46.013Z,8.27
2023-01-03T18:23:52.699Z,8.30
2023-01-03T18:25:55.083Z,7.28
2023-01-03T18:28:00.478Z,6.25
2023-01-03T18:30:02.307Z,7.57
2023-01-03T18:32:26.353Z,6.88
2023-01-03T18:34:28.226Z,6.70
2023-01-03T18:36:51.696Z,6.53
2023-01-03T18:39:00.993Z,6.68
2023-01-03T18:41:05.739Z,6.63
2023-01-03T18:43:14.080Z,6.43
2023-01-03T18:45:16.247Z,6.47
2023-01-03T18:47:18.273Z,6.50
2023-01-03T18:49:19.939Z,6.50
2023-01-03T18:51:24.550Z,6.65
2023-01-03T18:53:28.866Z,6.47
2023-01-03T18:55:33.665Z,7.20
2023-01-03T18:57:35.258Z,7.50
2023-01-03T18:59:36.899Z,7.07
2023-01-03T19:01:38.713Z,7.25
2023-01-03T19:03:42.569Z,6.95
2023-01-03T19:07:47.231Z,7.10
2023-01-03T19:09:49.389Z,6.32
2023-01-03T19:11:52.331Z,7.38
2023-01-03T19:13:55.074Z,6.87
2023-01-03T19:15:57.147Z,5.53
2023-01-03T19:18:01.530Z,6.60
2023-01-03T19:20:03.259Z,6.85
2023-01-03T19:22:15.528Z,7.20
2023-01-03T19:24:39.067Z,6.65
2023-01-03T19:26:44.243Z,6.70
2023-01-03T19:28:45.870Z,6.80
2023-01-03T19:30:47.888Z,7.20
2023-01-03T19:32:55.066Z,6.38
2023-01-03T19:34:56.991Z,6.63
2023-01-03T19:36:58.863Z,6.50
2023-01-03T19:39:00.501Z,5.38
2023-01-03T19:41:02.219Z,5.47
2023-01-03T19:43:04.337Z,6.10
2023-01-03T19:45:15.584Z,5.53
2023-01-03T19:47:18.784Z,6.32
2023-01-03T19:49:21.519Z,6.15
2023-01-03T19:51:23.447Z,5.72
2023-01-03T19:53:25.376Z,5.50
2023-01-03T19:55:29.739Z,5.13
2023-01-03T19:57:33.705Z,5.38
2023-01-03T19:59:37.444Z,5.55
2023-01-03T20:02:14.125Z,5.45
2023-01-03T20:04:02.002Z,5.45
2023-01-03T20:06:03.959Z,5.45
2023-01-03T20:08:12.204Z,5.55
2023-01-03T20:10:18.888Z,5.63
2023-01-03T20:12:25.105Z,5.90
2023-01-03T20:14:28.929Z,5.60
2023-01-03T20:18:36.421Z,5.85
2023-01-03T20:20:38.611Z,6.32
2023-01-03T20:25:04.223Z,6.35
2023-01-03T20:27:05.987Z,5.97
2023-01-03T20:29:10.168Z,5.72
2023-01-03T20:31:16.724Z,5.68
2023-01-03T20:33:21.804Z,5.47
2023-01-03T20:37:51.379Z,5.57
2023-01-03T20:39:53.339Z,5.75
2023-01-03T20:41:58.612Z,6.50
2023-01-03T20:44:08.106Z,5.40
2023-01-03T20:46:21.069Z,5.82
2023-01-03T20:48:26.173Z,5.95
2023-01-03T20:50:29.364Z,5.80
2023-01-03T20:52:31.151Z,6.15
2023-01-03T20:54:32.881Z,6.25
2023-01-03T20:56:34.784Z,5.97
2023-01-03T20:58:36.506Z,6.85
2023-01-03T21:00:38.597Z,5.72
2023-01-03T21:02:40.404Z,6.15
2023-01-03T21:04:42.388Z,6.30
2023-01-03T21:06:45.213Z,6.47
2023-01-03T21:08:56.557Z,6.35
2023-01-03T21:10:58.502Z,6.10
2023-01-03T21:13:00.192Z,6.18
2023-01-03T21:15:02.022Z,6.22
2023-01-03T21:17:03.668Z,6.18
2023-01-03T21:19:06.763Z,5.70
2023-01-03T21:21:15.737Z,6.18
2023-01-03T21:23:19.059Z,5.93
2023-01-03T21:25:33.016Z,6.65
2023-01-03T21:27:35.908Z,6.38
2023-01-03T21:29:37.771Z,7.18
2023-01-03T21:31:42.146Z,6.75
2023-01-03T21:33:44.685Z,6.45
2023-01-03T21:35:46.716Z,6.18
2023-01-03T21:37:48.987Z,6.45
2023-01-03T21:39:50.586Z,6.35
2023-01-03T21:42:10.770Z,5.88
2023-01-03T21:44:12.609Z,6.75
2023-01-03T21:46:20.327Z,5.85
2023-01-03T21:48:22.069Z,6.82
2023-01-03T21:50:24.643Z,7.18
2023-01-03T21:52:26.323Z,7.70
2023-01-03T21:54:28.075Z,7.32
2023-01-03T21:56:29.769Z,7.18
2023-01-03T21:58:31.541Z,7.25
2023-01-03T22:00:33.636Z,7.95
2023-01-03T22:02:59.714Z,7.55
2023-01-03T22:05:01.948Z,7.78
2023-01-03T22:07:03.705Z,7.63
2023-01-03T22:09:06.335Z,8.27
2023-01-03T22:11:08.421Z,8.13
2023-01-03T22:13:10.789Z,8.35
2023-01-03T22:15:12.663Z,8.85
2023-01-03T22:17:14.913Z,8.45
2023-01-03T22:19:16.716Z,9.50
2023-01-03T22:21:19.024Z,8.95
2023-01-03T22:23:20.812Z,8.77
2023-01-03T22:25:23.843Z,8.95
2023-01-03T22:27:25.608Z,8.98
2023-01-03T22:29:27.268Z,9.43
2023-01-03T22:31:29.008Z,9.27
2023-01-03T22:33:33.180Z,9.13
2023-01-03T22:35:34.901Z,9.13
2023-01-03T22:37:36.772Z,8.80
2023-01-03T22:39:38.604Z,10.20
2023-01-03T22:41:40.418Z,9.02
2023-01-03T22:43:42.659Z,9.75
2023-01-03T22:45:44.435Z,9.05
2023-01-03T22:47:46.262Z,9.23
2023-01-03T22:49:48.129Z,9.00
2023-01-03T22:51:49.876Z,8.75
2023-01-03T22:53:51.607Z,9.73
2023-01-03T22:55:53.336Z,9.38
2023-01-03T22:57:55.137Z,9.68
2023-01-03T22:59:56.806Z,9.40
2023-01-03T23:01:58.852Z,8.80
2023-01-03T23:04:01.439Z,9.77
2023-01-03T23:06:11.544Z,9.85
2023-01-03T23:08:13.249Z,9.70
2023-01-03T23:10:14.969Z,9.85
2023-01-03T23:12:35.329Z,9.18
2023-01-03T23:14:37.165Z,9.15
2023-01-03T23:16:39.359Z,9.73
2023-01-03T23:18:41.142Z,9.80
2023-01-03T23:20:48.926Z,9.00
2023-01-03T23:22:57.435Z,9.15
2023-01-03T23:25:01.209Z,9.77
2023-01-03T23:27:03.035Z,9.63
2023-01-03T23:29:05.100Z,8.82
2023-01-03T23:31:06.848Z,9.85
2023-01-03T23:33:08.814Z,8.65
2023-01-03T23:35:10.565Z,9.60
2023-01-03T23:37:12.262Z,8.98
2023-01-03T23:39:16.178Z,9.27
2023-01-03T23:43:19.682Z,9.20
2023-01-03T23:45:21.370Z,9.20
2023-01-03T23:47:23.183Z,8.50
2023-01-03T23:49:24.935Z,8.68
2023-01-03T23:51:27.290Z,9.55
2023-01-03T23:53:29.141Z,10.27
2023-01-03T23:55:30.863Z,9.50
2023-01-03T23:57:32.585Z,9.68
2023-01-03T23:59:34.336Z,9.38
